Valle Di Andalusia — IBTJ — position and weather

sailwx.info

Track history (hours):
 
Tides and Currents Weather Stations Pressure Air Temp Water Temp Dewpoint Dewpoint Depression Visibility Wind Speed Wind Dir Waves Ship Positions

Valle Di Andalusia

Last reported at 2017-Feb-22 07:29 UTC. Time now 2017-Feb-23 00:30 UTC.
Position N 35°53' E 014°54'.

Length 176 m; draft 7.5 m.

Type: Tanker. MMSI: 247046200.

Date/timePositionNaut miles runAvg speedWind from/ knotsBaromVisibWave heightAir tempDewpointWater temp
2017-Feb-22 07:29N 35°53' E 014°54'0 0.0
2017-Feb-22 04:31N 35°53' E 014°54'0 0.0
2017-Feb-22 00:32N 35°53' E 014°54'0 0.0
2017-Feb-21 22:20N 35°53' E 014°54'0 0.0
2017-Feb-21 17:20N 35°53' E 014°54'0 0.0
2017-Feb-21 02:05N 35°53' E 014°54'0 0.1
2017-Feb-21 01:28N 35°53' E 014°54'0 0.0
2017-Feb-19 23:22N 35°53' E 014°54'0 0.0
2017-Feb-19 22:22N 35°53' E 014°54'0 0.0
2017-Feb-19 21:22N 35°53' E 014°54'0 0.0
2017-Feb-19 20:33N 35°53' E 014°54'0 0.0
2017-Feb-19 19:16N 35°53' E 014°54'1 0.4
2017-Feb-19 16:14N 35°54' E 014°53'49910.5
2017-Feb-17 16:32N 44°11' E 013°58'1313.0
2017-Feb-17 15:33N 44°21' E 013°48'1313.2
2017-Feb-17 14:33N 44°32' E 013°38'1313.3
2017-Feb-17 13:33N 44°44' E 013°28'1313.1
2017-Feb-17 12:33N 44°55' E 013°18'1313.0
2017-Feb-17 11:33N 45°05' E 013°07'1312.8
2017-Feb-17 10:33N 45°17' E 013°02'1211.6
2017-Feb-17 09:33N 45°28' E 013°09'1313.0
2017-Feb-17 08:33N 45°35' E 013°24'1110.8
2017-Feb-17 07:33N 45°35' E 013°40'3 3.0
2017-Feb-17 06:26N 45°34' E 013°44'0 0.0
2017-Feb-17 05:32N 45°34' E 013°44'0 0.0
2017-Feb-17 04:23N 45°34' E 013°44'0 0.0
2017-Feb-17 03:28N 45°34' E 013°44'0 0.0
2017-Feb-17 02:31N 45°34' E 013°44'0 0.0
2017-Feb-17 01:30N 45°34' E 013°44'0 0.0
2017-Feb-17 00:33N 45°34' E 013°44'0 0.0
2017-Feb-16 23:33N 45°34' E 013°44'0 0.0
2017-Feb-16 22:29N 45°34' E 013°44'0 0.0
2017-Feb-16 21:29N 45°34' E 013°44'0 0.0
2017-Feb-16 20:25N 45°34' E 013°44'0 0.0
2017-Feb-16 19:26N 45°34' E 013°44'0 0.0
2017-Feb-16 18:33N 45°34' E 013°44'0 0.0
2017-Feb-16 17:33N 45°34' E 013°44'0 0.0
2017-Feb-16 16:32N 45°34' E 013°44'0 0.0
2017-Feb-16 15:23N 45°34' E 013°44'0 0.0
2017-Feb-16 14:32N 45°34' E 013°44'0 0.0
2017-Feb-16 13:25N 45°34' E 013°44'0 0.0
2017-Feb-16 12:16N 45°34' E 013°44'0 0.0
2017-Feb-16 11:33N 45°34' E 013°44'0 0.0
2017-Feb-16 10:24N 45°34' E 013°44'0 0.0
2017-Feb-16 09:26N 45°34' E 013°44'0 0.0
2017-Feb-16 08:29N 45°34' E 013°44'0 0.0
2017-Feb-16 07:29N 45°34' E 013°44'0 0.0
2017-Feb-16 06:31N 45°34' E 013°44'0 0.0
2017-Feb-16 05:31N 45°34' E 013°44'0 0.0
2017-Feb-16 04:18N 45°34' E 013°44'0 0.0
2017-Feb-16 03:30N 45°34' E 013°44'0 0.0
2017-Feb-16 02:20N 45°34' E 013°44'0 0.0
2017-Feb-16 01:26N 45°34' E 013°44'0 0.0
2017-Feb-16 00:28N 45°34' E 013°44'0 0.0
2017-Feb-15 23:04N 45°34' E 013°44'0 0.0
2017-Feb-15 22:28N 45°34' E 013°44'0 0.0
2017-Feb-15 21:30N 45°34' E 013°44'0 0.0
2017-Feb-15 20:24N 45°34' E 013°44'0 0.0
2017-Feb-15 18:20N 45°34' E 013°44'0 0.0
2017-Feb-15 17:07N 45°34' E 013°44'0 0.0
2017-Feb-15 16:31N 45°34' E 013°44'0 0.0
2017-Feb-15 15:31N 45°34' E 013°44'0 0.0
2017-Feb-15 14:33N 45°34' E 013°44'0 0.0
2017-Feb-15 13:27N 45°34' E 013°44'0 0.0
2017-Feb-15 12:20N 45°34' E 013°44'0 0.0
2017-Feb-15 11:08N 45°34' E 013°44'0 0.0
2017-Feb-15 10:10N 45°34' E 013°44'0 0.0
2017-Feb-15 09:25N 45°34' E 013°44'0 0.0
2017-Feb-15 08:28N 45°34' E 013°44'0 0.0
2017-Feb-15 07:30N 45°34' E 013°44'0 0.1
2017-Feb-15 06:33N 45°34' E 013°44'3 3.0
2017-Feb-15 05:33N 45°34' E 013°40'9 9.0
2017-Feb-15 04:33N 45°32' E 013°27'1211.7
2017-Feb-15 03:33N 45°25' E 013°15'1111.0
2017-Feb-15 02:33N 45°14' E 013°16'1111.5
2017-Feb-15 01:33N 45°03' E 013°20'1211.6
2017-Feb-15 00:33N 44°52' E 013°27'1211.7
2017-Feb-14 23:33N 44°42' E 013°36'1211.9
2017-Feb-14 22:33N 44°32' E 013°45'1211.9
2017-Feb-14 21:33N 44°22' E 013°54'1212.3
2017-Feb-14 20:33N 44°12' E 014°03'1212.3
2017-Feb-14 19:33N 44°02' E 014°13'396 9.6
2017-Feb-13 02:28N 37°34' E 015°57'8510.7
2017-Feb-12 18:33N 36°40' E 014°35'1312.9
2017-Feb-12 17:33N 36°45' E 014°21'1312.5
2017-Feb-12 16:33N 36°51' E 014°07'1312.4
2017-Feb-12 15:33N 36°56' E 013°53'1312.7
2017-Feb-12 14:33N 37°02' E 013°39'  
Track history (hours):
 
Tides and Currents Weather Stations Pressure Air Temp Water Temp Dewpoint Dewpoint Depression Visibility Wind Speed Wind Dir Waves Ship Positions

Valle Di Andalusia

Last reported at 2017-Feb-22 07:29 UTC. Time now 2017-Feb-23 00:30 UTC.
Position N 35°53' E 014°54'.

Length 176 m; draft 7.5 m.

Type: Tanker. MMSI: 247046200.

Date/timePositionNaut miles runAvg speedWind from/ knotsBaromVisibWave heightAir tempDewpointWater temp
2017-Feb-22 07:29N 35°53' E 014°54'0 0.0
2017-Feb-22 04:31N 35°53' E 014°54'0 0.0
2017-Feb-22 00:32N 35°53' E 014°54'0 0.0
2017-Feb-21 22:20N 35°53' E 014°54'0 0.0
2017-Feb-21 17:20N 35°53' E 014°54'0 0.0
2017-Feb-21 02:05N 35°53' E 014°54'0 0.1
2017-Feb-21 01:28N 35°53' E 014°54'0 0.0
2017-Feb-19 23:22N 35°53' E 014°54'0 0.0
2017-Feb-19 22:22N 35°53' E 014°54'0 0.0
2017-Feb-19 21:22N 35°53' E 014°54'0 0.0
2017-Feb-19 20:33N 35°53' E 014°54'0 0.0
2017-Feb-19 19:16N 35°53' E 014°54'1 0.4
2017-Feb-19 16:14N 35°54' E 014°53'49910.5
2017-Feb-17 16:32N 44°11' E 013°58'1313.0
2017-Feb-17 15:33N 44°21' E 013°48'1313.2
2017-Feb-17 14:33N 44°32' E 013°38'1313.3
2017-Feb-17 13:33N 44°44' E 013°28'1313.1
2017-Feb-17 12:33N 44°55' E 013°18'1313.0
2017-Feb-17 11:33N 45°05' E 013°07'1312.8
2017-Feb-17 10:33N 45°17' E 013°02'1211.6
2017-Feb-17 09:33N 45°28' E 013°09'1313.0
2017-Feb-17 08:33N 45°35' E 013°24'1110.8
2017-Feb-17 07:33N 45°35' E 013°40'3 3.0
2017-Feb-17 06:26N 45°34' E 013°44'0 0.0
2017-Feb-17 05:32N 45°34' E 013°44'0 0.0
2017-Feb-17 04:23N 45°34' E 013°44'0 0.0
2017-Feb-17 03:28N 45°34' E 013°44'0 0.0
2017-Feb-17 02:31N 45°34' E 013°44'0 0.0
2017-Feb-17 01:30N 45°34' E 013°44'0 0.0
2017-Feb-17 00:33N 45°34' E 013°44'0 0.0
2017-Feb-16 23:33N 45°34' E 013°44'0 0.0
2017-Feb-16 22:29N 45°34' E 013°44'0 0.0
2017-Feb-16 21:29N 45°34' E 013°44'0 0.0
2017-Feb-16 20:25N 45°34' E 013°44'0 0.0
2017-Feb-16 19:26N 45°34' E 013°44'0 0.0
2017-Feb-16 18:33N 45°34' E 013°44'0 0.0
2017-Feb-16 17:33N 45°34' E 013°44'0 0.0
2017-Feb-16 16:32N 45°34' E 013°44'0 0.0
2017-Feb-16 15:23N 45°34' E 013°44'0 0.0
2017-Feb-16 14:32N 45°34' E 013°44'0 0.0
2017-Feb-16 13:25N 45°34' E 013°44'0 0.0
2017-Feb-16 12:16N 45°34' E 013°44'0 0.0
2017-Feb-16 11:33N 45°34' E 013°44'0 0.0
2017-Feb-16 10:24N 45°34' E 013°44'0 0.0
2017-Feb-16 09:26N 45°34' E 013°44'0 0.0
2017-Feb-16 08:29N 45°34' E 013°44'0 0.0
2017-Feb-16 07:29N 45°34' E 013°44'0 0.0
2017-Feb-16 06:31N 45°34' E 013°44'0 0.0
2017-Feb-16 05:31N 45°34' E 013°44'0 0.0
2017-Feb-16 04:18N 45°34' E 013°44'0 0.0
2017-Feb-16 03:30N 45°34' E 013°44'0 0.0
2017-Feb-16 02:20N 45°34' E 013°44'0 0.0
2017-Feb-16 01:26N 45°34' E 013°44'0 0.0
2017-Feb-16 00:28N 45°34' E 013°44'0 0.0
2017-Feb-15 23:04N 45°34' E 013°44'0 0.0
2017-Feb-15 22:28N 45°34' E 013°44'0 0.0
2017-Feb-15 21:30N 45°34' E 013°44'0 0.0
2017-Feb-15 20:24N 45°34' E 013°44'0 0.0
2017-Feb-15 18:20N 45°34' E 013°44'0 0.0
2017-Feb-15 17:07N 45°34' E 013°44'0 0.0
2017-Feb-15 16:31N 45°34' E 013°44'0 0.0
2017-Feb-15 15:31N 45°34' E 013°44'0 0.0
2017-Feb-15 14:33N 45°34' E 013°44'0 0.0
2017-Feb-15 13:27N 45°34' E 013°44'0 0.0
2017-Feb-15 12:20N 45°34' E 013°44'0 0.0
2017-Feb-15 11:08N 45°34' E 013°44'0 0.0
2017-Feb-15 10:10N 45°34' E 013°44'0 0.0
2017-Feb-15 09:25N 45°34' E 013°44'0 0.0
2017-Feb-15 08:28N 45°34' E 013°44'0 0.0
2017-Feb-15 07:30N 45°34' E 013°44'0 0.1
2017-Feb-15 06:33N 45°34' E 013°44'3 3.0
2017-Feb-15 05:33N 45°34' E 013°40'9 9.0
2017-Feb-15 04:33N 45°32' E 013°27'1211.7
2017-Feb-15 03:33N 45°25' E 013°15'1111.0
2017-Feb-15 02:33N 45°14' E 013°16'1111.5
2017-Feb-15 01:33N 45°03' E 013°20'1211.6
2017-Feb-15 00:33N 44°52' E 013°27'1211.7
2017-Feb-14 23:33N 44°42' E 013°36'1211.9
2017-Feb-14 22:33N 44°32' E 013°45'1211.9
2017-Feb-14 21:33N 44°22' E 013°54'1212.3
2017-Feb-14 20:33N 44°12' E 014°03'1212.3
2017-Feb-14 19:33N 44°02' E 014°13'396 9.6
2017-Feb-13 02:28N 37°34' E 015°57'8510.7
2017-Feb-12 18:33N 36°40' E 014°35'1312.9
2017-Feb-12 17:33N 36°45' E 014°21'1312.5
2017-Feb-12 16:33N 36°51' E 014°07'1312.4
2017-Feb-12 15:33N 36°56' E 013°53'1312.7
2017-Feb-12 14:33N 37°02' E 013°39'  

Dump ship's entire track history